Time;durP1;ratioP1;P1;durP2;ratioP2;P2;SDS_P1;SDS_P2;PMS_P1;PMS_P2;Temp;Humidity;BMP_temperature;BMP_pressure;BME280_temperature;BME280_humidity;BME280_pressure;Samples;Min_cycle;Max_cycle;Signal;HPM_P1;HPM_P2
2022/04/04 00:01:12;;;;;;;6.30;3.42;;;;;;;1.57;57.87;99871.92;1739354;80;21145;-53
2022/04/04 00:03:39;;;;;;;7.40;3.80;;;;;;;1.55;57.78;99874.59;1744224;81;21505;-53
2022/04/04 00:06:07;;;;;;;8.33;3.72;;;;;;;1.53;57.90;99885.50;1739803;82;21096;-52
2022/04/04 00:08:35;;;;;;;6.97;3.58;;;;;;;1.50;57.72;99870.09;1734254;80;21519;-53
2022/04/04 00:11:02;;;;;;;10.50;4.42;;;;;;;1.49;57.56;99873.13;1745495;80;21019;-53
2022/04/04 00:13:30;;;;;;;7.65;3.45;;;;;;;1.48;57.44;99876.65;1741721;82;21031;-54
2022/04/04 00:15:57;;;;;;;6.78;3.70;;;;;;;1.51;57.12;99881.30;1743585;80;21036;-54
2022/04/04 00:18:24;;;;;;;6.75;3.58;;;;;;;1.49;56.80;99883.50;1745826;80;21106;-53
2022/04/04 00:20:50;;;;;;;8.30;3.95;;;;;;;1.53;57.01;99885.50;1742117;82;21055;-53
2022/04/04 00:23:18;;;;;;;8.00;4.10;;;;;;;1.49;57.07;99886.09;1745839;79;21099;-53
2022/04/04 00:25:47;;;;;;;8.70;4.45;;;;;;;1.49;57.03;99893.04;1751304;79;22467;-53
2022/04/04 00:28:14;;;;;;;8.38;4.05;;;;;;;1.46;57.14;99900.97;1760119;80;21548;-53
2022/04/04 00:30:41;;;;;;;9.10;4.00;;;;;;;1.48;57.19;99910.36;1755995;80;21074;-53
2022/04/04 00:33:09;;;;;;;9.85;3.95;;;;;;;1.51;56.60;99910.64;1748310;80;21078;-53
2022/04/04 00:35:35;;;;;;;11.35;3.58;;;;;;;1.53;56.54;99905.39;1756464;80;22210;-53
2022/04/04 00:38:03;;;;;;;7.50;3.65;;;;;;;1.52;56.60;99901.97;1749058;80;21146;-53
2022/04/04 00:40:31;;;;;;;8.03;3.67;;;;;;;1.52;56.62;99905.86;1750697;80;21051;-53
2022/04/04 00:42:58;;;;;;;6.97;3.50;;;;;;;1.50;56.47;99910.28;1753098;80;21082;-53
2022/04/04 00:45:25;;;;;;;7.28;3.55;;;;;;;1.52;56.43;99913.63;1751882;80;21615;-53
2022/04/04 00:47:51;;;;;;;6.87;3.72;;;;;;;1.44;56.55;99907.98;1751798;80;21956;-53
2022/04/04 00:50:18;;;;;;;9.95;4.37;;;;;;;1.42;56.70;99917.60;1748282;80;21131;-53
2022/04/04 00:52:45;;;;;;;7.33;4.10;;;;;;;1.40;56.89;99920.73;1749106;80;21076;-53
2022/04/04 00:55:12;;;;;;;7.12;3.67;;;;;;;1.36;57.09;99917.45;1750467;80;20991;-53
2022/04/04 00:57:40;;;;;;;7.83;3.80;;;;;;;1.32;57.40;99925.45;1701322;82;21134;-53
2022/04/04 01:00:09;;;;;;;8.03;3.45;;;;;;;1.30;57.27;99921.64;1760742;80;21533;-53
2022/04/04 01:02:39;;;;;;;7.28;3.47;;;;;;;1.27;57.56;99921.31;1751671;80;21151;-53
2022/04/04 01:05:09;;;;;;;7.25;4.00;;;;;;;1.25;57.58;99921.02;1749703;80;21086;-53
2022/04/04 01:07:38;;;;;;;7.17;2.83;;;;;;;1.23;57.43;99924.98;1753418;80;21055;-53
2022/04/04 01:10:09;;;;;;;9.08;4.45;;;;;;;1.23;57.61;99931.47;1754117;80;21083;-53
2022/04/04 01:12:37;;;;;;;7.08;3.62;;;;;;;1.19;57.39;99928.62;1754104;80;21003;-54
2022/04/04 01:15:06;;;;;;;10.28;3.70;;;;;;;1.18;57.81;99932.15;1753135;80;21352;-53
2022/04/04 01:17:34;;;;;;;7.95;3.62;;;;;;;1.15;57.69;99926.28;1749714;80;21062;-53
2022/04/04 01:20:01;;;;;;;8.03;3.67;;;;;;;1.13;57.72;99928.08;1762181;79;21862;-54
2022/04/04 01:22:29;;;;;;;7.37;3.70;;;;;;;1.06;57.62;99926.23;1689301;82;21051;-53
2022/04/04 01:24:59;;;;;;;6.95;3.90;;;;;;;1.04;57.93;99930.23;1764027;80;20977;-53
2022/04/04 01:27:24;;;;;;;7.40;3.35;;;;;;;1.05;58.09;99937.53;1761679;80;21777;-53
2022/04/04 01:29:51;;;;;;;7.53;4.03;;;;;;;1.05;57.94;99935.77;1762189;80;21059;-53
2022/04/04 01:32:18;;;;;;;7.87;3.98;;;;;;;0.99;58.57;99941.23;1765169;80;22113;-53
2022/04/04 01:34:45;;;;;;;7.03;3.80;;;;;;;0.99;58.57;99941.23;1720605;82;21074;-53
2022/04/04 01:37:11;;;;;;;8.33;4.20;;;;;;;0.99;57.78;99939.11;1762974;80;21026;-53
2022/04/04 01:39:38;;;;;;;6.80;3.37;;;;;;;0.99;58.03;99943.00;1751327;80;21114;-53
2022/04/04 01:42:05;;;;;;;9.90;4.08;;;;;;;0.98;57.99;99938.75;1769223;80;21035;-53
2022/04/04 01:44:32;;;;;;;7.55;3.50;;;;;;;0.90;58.20;99937.34;1756436;80;21515;-53
2022/04/04 01:46:59;;;;;;;7.95;3.52;;;;;;;0.90;58.20;99937.34;1756981;80;21063;-53
2022/04/04 01:49:26;;;;;;;7.85;3.85;;;;;;;0.84;58.54;99937.64;1756383;80;21110;-53
2022/04/04 01:51:52;;;;;;;6.28;3.22;;;;;;;0.82;58.77;99943.33;1756064;80;21132;-52
2022/04/04 01:54:19;;;;;;;7.50;3.25;;;;;;;0.80;58.86;99942.56;1689083;83;21035;-53
2022/04/04 01:56:47;;;;;;;7.65;3.98;;;;;;;0.81;59.01;99952.03;1708882;82;21120;-53
2022/04/04 01:59:13;;;;;;;6.47;3.12;;;;;;;0.76;59.12;99950.55;1701749;83;21068;-52
2022/04/04 02:01:41;;;;;;;6.12;3.20;;;;;;;0.72;59.23;99953.73;1706697;83;21116;-52
2022/04/04 02:04:10;;;;;;;6.65;3.83;;;;;;;0.70;59.64;99955.09;1701829;83;21150;-52
2022/04/04 02:06:39;;;;;;;9.40;3.62;;;;;;;0.69;59.37;99959.05;1702831;83;21083;-52
2022/04/04 02:09:07;;;;;;;7.95;3.80;;;;;;;0.68;59.42;99962.10;1702849;83;21059;-52
2022/04/04 02:11:35;;;;;;;7.40;3.67;;;;;;;0.67;59.32;99960.44;1704519;82;21075;-52
2022/04/04 02:14:03;;;;;;;7.25;3.40;;;;;;;0.66;59.33;99963.09;1706574;83;21134;-52
2022/04/04 02:16:30;;;;;;;8.75;4.00;;;;;;;0.63;59.30;99963.23;1702623;82;21134;-52
2022/04/04 02:18:56;;;;;;;5.33;2.95;;;;;;;0.58;59.49;99966.48;1706081;83;21055;-53
2022/04/04 02:21:24;;;;;;;6.55;3.33;;;;;;;0.54;59.56;99961.91;1700692;82;21035;-53
2022/04/04 02:23:51;;;;;;;7.65;3.80;;;;;;;0.50;59.51;99974.12;1697288;82;21080;-53
2022/04/04 02:26:19;;;;;;;6.53;3.50;;;;;;;0.43;59.77;99964.13;1752415;80;21512;-52
2022/04/04 02:28:47;;;;;;;6.83;3.60;;;;;;;0.40;59.90;99968.14;1748349;80;21021;-53
2022/04/04 02:31:13;;;;;;;8.38;3.65;;;;;;;0.36;59.91;99982.52;1751792;80;21012;-53
2022/04/04 02:33:40;;;;;;;7.05;3.25;;;;;;;0.36;59.98;99985.10;1752603;80;21499;-52
2022/04/04 02:36:08;;;;;;;6.97;3.35;;;;;;;0.34;59.84;99988.69;1754553;79;21098;-53
2022/04/04 02:38:36;;;;;;;7.05;3.10;;;;;;;0.28;59.97;99986.35;1749230;80;21048;-52
2022/04/04 02:41:02;;;;;;;6.35;3.50;;;;;;;0.26;60.01;99989.47;1752023;80;21150;-52
2022/04/04 02:43:30;;;;;;;7.33;3.45;;;;;;;0.19;60.12;99992.77;1745885;80;21060;-53
2022/04/04 02:45:56;;;;;;;8.65;3.83;;;;;;;0.17;60.11;99994.59;1748789;80;21598;-52
2022/04/04 02:48:23;;;;;;;7.20;2.95;;;;;;;0.17;60.20;99998.48;1754550;80;21098;-53
2022/04/04 02:50:52;;;;;;;6.97;3.52;;;;;;;0.17;60.15;100003.19;1745144;80;21094;-53
2022/04/04 02:53:18;;;;;;;7.95;3.77;;;;;;;0.16;60.10;100007.13;1751720;80;21498;-53
2022/04/04 02:58:31;;;;;;;7.10;3.50;;;;;;;0.13;59.85;100009.84;1758970;80;21075;-53
2022/04/04 03:00:57;;;;;;;7.83;3.98;;;;;;;0.07;60.57;100003.20;1757965;80;21032;-52
2022/04/04 03:03:24;;;;;;;7.28;3.95;;;;;;;0.07;60.57;100003.20;1751928;80;21039;-53
2022/04/04 03:05:51;;;;;;;9.45;4.55;;;;;;;0.06;60.30;100000.67;1742591;80;21862;-52
2022/04/04 03:08:18;;;;;;;8.33;4.05;;;;;;;0.03;60.34;100008.09;1746498;80;21005;-53
2022/04/04 03:10:45;;;;;;;7.42;3.55;;;;;;;0.02;60.34;100012.91;1746818;80;21107;-53
2022/04/04 03:13:12;;;;;;;8.88;4.17;;;;;;;0.02;60.34;100012.91;1751334;80;21051;-52
2022/04/04 03:15:39;;;;;;;6.53;3.55;;;;;;;0.02;60.35;100016.78;1747171;80;21616;-53
2022/04/04 03:18:07;;;;;;;7.37;4.10;;;;;;;-0.04;60.12;100027.37;1755754;80;22148;-53
2022/04/04 03:20:34;;;;;;;7.35;4.08;;;;;;;-0.06;60.42;100040.84;1754460;80;21071;-53
2022/04/04 03:23:02;;;;;;;8.93;4.12;;;;;;;-0.06;60.42;100040.84;1755331;80;21526;-53
2022/04/04 03:25:29;;;;;;;8.25;3.62;;;;;;;-0.06;60.49;100036.95;1752864;80;21134;-53
2022/04/04 03:27:56;;;;;;;9.53;3.77;;;;;;;-0.09;60.69;100037.08;1760682;80;21437;-53
2022/04/04 03:30:27;;;;;;;8.00;4.20;;;;;;;-0.10;60.56;100039.27;1761818;79;21158;-53
2022/04/04 03:32:55;;;;;;;7.15;3.85;;;;;;;-0.12;60.49;100049.67;1757708;80;21501;-53
2022/04/04 03:35:22;;;;;;;8.40;3.98;;;;;;;-0.12;60.47;100052.72;1763375;80;21046;-53
2022/04/04 03:37:50;;;;;;;12.85;6.90;;;;;;;-0.17;60.51;100058.07;1761426;80;21125;-53
2022/04/04 03:40:19;;;;;;;12.90;7.45;;;;;;;-0.21;60.69;100044.42;1752373;80;21053;-53
2022/04/04 03:42:48;;;;;;;9.48;4.65;;;;;;;-0.22;60.73;100050.52;1708255;82;21282;-52
2022/04/04 03:45:15;;;;;;;13.43;6.85;;;;;;;-0.24;60.74;100055.35;1756683;80;21047;-52
2022/04/04 03:47:43;;;;;;;10.43;6.35;;;;;;;-0.24;60.74;100055.35;1763088;80;21046;-52
2022/04/04 03:50:12;;;;;;;9.70;4.80;;;;;;;-0.24;60.87;100064.41;1763771;80;21038;-52
2022/04/04 03:52:43;;;;;;;7.80;4.58;;;;;;;-0.26;60.81;100068.80;1759187;80;21051;-52
2022/04/04 03:55:11;;;;;;;9.18;4.72;;;;;;;-0.25;60.77;100075.20;1705668;83;21149;-52
2022/04/04 03:57:40;;;;;;;6.85;4.33;;;;;;;-0.24;60.95;100072.99;1755021;80;21074;-53
2022/04/04 04:00:08;;;;;;;7.55;4.65;;;;;;;-0.19;60.25;100076.69;1759659;80;21523;-53
2022/04/04 04:02:35;;;;;;;8.13;4.47;;;;;;;-0.19;60.25;100076.69;1765111;80;22411;-54
2022/04/04 04:05:04;;;;;;;10.95;4.60;;;;;;;-0.18;60.39;100083.56;1758503;80;21017;-54
2022/04/04 04:07:31;;;;;;;7.80;3.98;;;;;;;-0.21;60.61;100088.85;1762707;80;21864;-54
2022/04/04 04:09:58;;;;;;;8.50;4.78;;;;;;;-0.21;60.61;100088.85;1750475;80;21088;-52
2022/04/04 04:12:27;;;;;;;8.00;4.25;;;;;;;-0.22;60.43;100092.33;1758057;80;21100;-52
2022/04/04 04:14:55;;;;;;;9.48;4.20;;;;;;;-0.24;60.45;100091.09;1754030;80;21030;-55
2022/04/04 04:17:24;;;;;;;8.08;3.90;;;;;;;-0.22;60.46;100097.06;1763505;80;21408;-52
2022/04/04 04:22:37;;;;;;;9.23;4.65;;;;;;;-0.13;60.10;100098.44;1761408;80;21058;-53
2022/04/04 04:25:05;;;;;;;8.48;4.33;;;;;;;-0.03;59.83;100101.50;1764847;80;21567;-53
2022/04/04 04:27:33;;;;;;;8.10;3.62;;;;;;;-0.03;59.83;100101.50;1765515;80;21038;-52
2022/04/04 04:30:00;;;;;;;8.15;4.50;;;;;;;0.08;59.67;100102.34;1765370;80;21073;-53
2022/04/04 04:32:26;;;;;;;8.75;4.33;;;;;;;0.08;59.67;100102.34;1758304;80;21196;-53
2022/04/04 04:34:53;;;;;;;9.60;4.75;;;;;;;0.13;59.55;100114.63;1751647;80;21094;-52
2022/04/04 04:38:43;;;;;;;8.65;3.62;;;;;;;0.15;59.70;100120.15;1776244;78;22648;-53
2022/04/04 04:41:09;;;;;;;8.83;3.80;;;;;;;0.17;58.82;100135.61;1748288;80;21023;-54
2022/04/04 04:43:39;;;;;;;7.92;3.62;;;;;;;0.17;58.82;100135.61;1744382;80;20941;-52
2022/04/04 04:46:06;;;;;;;9.13;4.45;;;;;;;0.22;59.04;100126.34;1752819;80;21044;-52
2022/04/04 04:48:33;;;;;;;7.67;4.50;;;;;;;0.30;58.88;100130.75;1753349;80;21082;-53
2022/04/04 04:50:59;;;;;;;8.23;4.47;;;;;;;0.35;58.77;100130.11;1752146;80;21036;-52
2022/04/04 04:53:26;;;;;;;8.03;3.83;;;;;;;0.43;58.66;100137.11;1739297;80;21102;-52
2022/04/04 04:55:53;;;;;;;10.08;4.20;;;;;;;0.48;58.37;100144.22;1733701;80;21155;-52
2022/04/04 04:58:20;;;;;;;7.53;3.90;;;;;;;0.53;58.07;100144.87;1736144;80;21042;-53
2022/04/04 05:00:46;;;;;;;9.28;4.70;;;;;;;0.58;57.65;100145.14;1733820;80;21046;-52
2022/04/04 05:03:26;;;;;;;7.78;3.70;;;;;;;0.69;57.49;100150.69;1744041;80;21073;-53
2022/04/04 05:05:53;;;;;;;7.78;4.42;;;;;;;0.69;57.49;100150.69;1745204;80;21091;-52
2022/04/04 05:08:22;;;;;;;9.08;4.28;;;;;;;0.70;56.77;100154.50;1730651;80;21032;-53
2022/04/04 05:10:50;;;;;;;8.05;4.25;;;;;;;0.71;56.78;100160.55;1738713;80;21544;-53
2022/04/04 05:13:19;;;;;;;8.38;4.42;;;;;;;0.68;56.87;100155.49;1744865;80;21030;-52
2022/04/04 05:15:46;;;;;;;8.40;4.30;;;;;;;0.72;56.84;100172.57;1747479;81;21099;-53
2022/04/04 05:18:13;;;;;;;9.98;4.72;;;;;;;0.71;56.81;100165.27;1743930;80;21082;-52
2022/04/04 05:20:39;;;;;;;6.67;3.60;;;;;;;0.76;56.80;100170.25;1762173;80;21201;-52
2022/04/04 05:23:07;;;;;;;9.18;4.28;;;;;;;0.82;56.65;100171.27;1739116;80;21544;-54
2022/04/04 05:25:34;;;;;;;10.80;4.50;;;;;;;0.89;56.32;100166.66;1742094;81;21114;-52
2022/04/04 05:28:01;;;;;;;8.40;4.03;;;;;;;0.99;56.11;100186.55;1755325;80;21026;-53
2022/04/04 05:30:27;;;;;;;8.05;4.35;;;;;;;0.99;55.44;100178.77;1758975;80;21080;-53
2022/04/04 05:32:54;;;;;;;7.22;3.62;;;;;;;1.02;55.66;100181.23;1749845;80;21207;-53
2022/04/04 05:35:21;;;;;;;8.30;3.92;;;;;;;1.05;55.27;100179.80;1755248;81;21508;-53
2022/04/04 05:37:54;;;;;;;9.55;4.42;;;;;;;1.07;55.36;100179.28;1717410;80;21046;-53
2022/04/04 05:40:17;;;;;;;7.70;3.80;;;;;;;1.10;55.61;100188.22;1709500;82;21067;-53
2022/04/04 05:42:45;;;;;;;7.83;4.30;;;;;;;1.30;55.17;100189.93;1707624;82;21094;-53
2022/04/04 05:45:12;;;;;;;8.25;4.33;;;;;;;1.30;55.17;100189.93;1712053;82;21170;-53
2022/04/04 05:47:39;;;;;;;6.22;3.20;;;;;;;1.39;54.13;100185.61;1705484;82;21086;-53
2022/04/04 05:50:07;;;;;;;7.22;3.60;;;;;;;1.39;54.13;100185.61;1713594;83;21028;-53
2022/04/04 05:52:35;;;;;;;9.23;3.65;;;;;;;1.46;54.82;100196.55;1709779;82;21050;-53
2022/04/04 05:55:06;;;;;;;10.88;3.95;;;;;;;1.46;54.82;100196.55;1708421;82;21082;-53
2022/04/04 05:57:36;;;;;;;8.80;4.37;;;;;;;1.55;54.09;100194.02;1709381;82;21240;-53
2022/04/04 06:00:13;;;;;;;7.55;3.95;;;;;;;1.63;53.81;100197.94;1706498;82;21662;-53
2022/04/04 06:02:41;;;;;;;8.40;3.95;;;;;;;1.71;53.35;100190.25;1714111;82;21051;-53
2022/04/04 06:05:08;;;;;;;8.40;4.28;;;;;;;1.74;53.56;100201.78;1708382;83;21113;-53
2022/04/04 06:07:38;;;;;;;7.47;3.40;;;;;;;1.81;53.81;100197.98;1704950;82;20997;-53
2022/04/04 06:10:07;;;;;;;7.85;4.60;;;;;;;1.84;54.11;100201.27;1709235;82;21116;-53
2022/04/04 06:12:38;;;;;;;8.25;3.90;;;;;;;1.89;53.32;100197.17;1706046;82;21119;-53
2022/04/04 06:15:06;;;;;;;8.80;4.55;;;;;;;1.95;53.40;100206.41;1714308;82;21098;-53
2022/04/04 06:17:33;;;;;;;8.25;3.92;;;;;;;1.98;52.89;100207.57;1711173;82;21071;-53
2022/04/04 06:20:00;;;;;;;6.78;3.87;;;;;;;1.98;53.02;100207.11;1695846;83;21083;-53
2022/04/04 06:22:26;;;;;;;7.83;3.75;;;;;;;2.02;53.14;100216.45;1705132;82;21249;-53
2022/04/04 06:24:54;;;;;;;7.45;3.62;;;;;;;2.05;53.08;100219.34;1716664;82;21116;-52
2022/04/04 06:27:21;;;;;;;7.50;3.83;;;;;;;2.08;53.13;100216.60;1720361;82;21541;-55
2022/04/04 06:29:47;;;;;;;8.20;4.17;;;;;;;2.14;53.21;100218.09;1721580;82;21050;-54
2022/04/04 06:32:15;;;;;;;7.17;3.77;;;;;;;2.21;52.33;100217.70;1715656;82;21064;-55
2022/04/04 06:34:43;;;;;;;8.95;3.90;;;;;;;2.24;52.08;100225.81;1722717;82;21086;-52
2022/04/04 06:37:10;;;;;;;7.87;3.95;;;;;;;2.29;52.01;100229.50;1707845;82;21046;-54
2022/04/04 06:39:38;;;;;;;6.62;3.35;;;;;;;2.32;52.09;100224.99;1705965;82;21059;-55
2022/04/04 06:42:05;;;;;;;9.35;4.25;;;;;;;2.36;51.50;100220.48;1710785;82;21086;-55
2022/04/04 06:44:32;;;;;;;7.47;3.70;;;;;;;2.39;52.06;100222.47;1709634;82;21023;-55
2022/04/04 06:47:00;;;;;;;9.30;4.10;;;;;;;2.44;50.86;100226.16;1709951;82;21035;-55
2022/04/04 06:49:27;;;;;;;9.08;4.35;;;;;;;2.49;50.92;100234.99;1715525;83;21529;-55
2022/04/04 06:51:56;;;;;;;9.65;4.20;;;;;;;2.54;50.96;100234.31;1713359;82;21110;-53
2022/04/04 06:54:23;;;;;;;8.13;3.85;;;;;;;2.60;49.51;100230.95;1708797;82;21509;-53
2022/04/04 06:56:49;;;;;;;9.30;4.65;;;;;;;2.65;49.19;100232.03;1712567;82;21067;-53
2022/04/04 06:59:16;;;;;;;7.62;3.65;;;;;;;2.70;49.67;100234.41;1710694;82;22078;-54
2022/04/04 07:01:43;;;;;;;7.83;3.90;;;;;;;2.76;49.52;100248.41;1711602;82;21061;-53
2022/04/04 07:04:11;;;;;;;6.08;3.05;;;;;;;2.83;48.92;100243.74;1711502;82;21043;-54
2022/04/04 07:06:38;;;;;;;8.85;4.12;;;;;;;2.84;48.32;100246.27;1713527;82;21110;-54
2022/04/04 07:09:05;;;;;;;7.97;4.10;;;;;;;2.88;47.90;100232.19;1715244;83;21082;-53
2022/04/04 07:11:34;;;;;;;9.20;4.00;;;;;;;2.93;48.13;100239.30;1707015;82;21163;-54
2022/04/04 07:14:02;;;;;;;10.00;4.12;;;;;;;3.02;48.10;100244.48;1699330;82;21572;-53
2022/04/04 07:16:30;;;;;;;6.62;3.62;;;;;;;3.08;47.55;100244.17;1702345;82;21534;-54
2022/04/04 07:18:58;;;;;;;7.12;3.60;;;;;;;3.12;47.73;100254.78;1706640;82;21084;-53
2022/04/04 07:21:24;;;;;;;7.22;3.65;;;;;;;3.19;47.48;100252.71;1716061;82;21038;-53
2022/04/04 07:23:51;;;;;;;8.90;3.92;;;;;;;3.26;48.26;100257.14;1700683;82;21168;-54
2022/04/04 07:26:21;;;;;;;6.75;3.77;;;;;;;3.34;48.23;100262.31;1715189;82;21028;-54
2022/04/04 07:28:47;;;;;;;8.00;3.65;;;;;;;3.41;47.92;100252.44;1702849;82;21600;-54
2022/04/04 07:31:16;;;;;;;6.75;3.72;;;;;;;3.46;47.57;100258.27;1696334;83;21126;-54
2022/04/04 07:33:44;;;;;;;7.42;4.05;;;;;;;3.52;46.66;100258.39;1697389;82;21482;-53
2022/04/04 07:36:11;;;;;;;8.05;3.42;;;;;;;3.57;46.61;100265.49;1714326;83;21303;-54
2022/04/04 07:38:38;;;;;;;9.15;4.12;;;;;;;3.61;46.79;100270.07;1722372;81;21100;-54
2022/04/04 07:41:23;;;;;;;8.25;3.08;;;;;;;3.66;46.48;100275.88;1729983;82;21087;-53
2022/04/04 07:43:49;;;;;;;6.00;3.33;;;;;;;3.69;46.38;100271.34;1710895;81;21058;-53
2022/04/04 07:46:17;;;;;;;7.65;3.70;;;;;;;3.76;45.27;100267.12;1720365;81;21685;-55
2022/04/04 07:48:45;;;;;;;8.25;3.62;;;;;;;3.80;45.16;100272.09;1720280;81;21133;-54
2022/04/04 07:51:12;;;;;;;8.50;3.35;;;;;;;3.86;44.37;100270.91;1730802;82;21074;-54
2022/04/04 07:53:39;;;;;;;8.35;3.40;;;;;;;3.94;43.42;100266.59;1729775;81;21038;-54
2022/04/04 07:56:06;;;;;;;6.67;3.35;;;;;;;4.02;44.25;100278.74;1729756;82;21073;-54
2022/04/04 07:58:33;;;;;;;6.47;3.45;;;;;;;4.09;43.94;100277.47;1724803;81;21076;-53
2022/04/04 08:01:00;;;;;;;8.23;3.25;;;;;;;4.20;43.76;100279.03;1727778;81;21149;-54
2022/04/04 08:03:26;;;;;;;7.70;3.20;;;;;;;4.30;43.34;100278.04;1729027;81;21104;-55
2022/04/04 08:05:54;;;;;;;7.20;3.37;;;;;;;4.40;40.30;100278.38;1728573;81;21050;-54
2022/04/04 08:08:21;;;;;;;8.50;3.98;;;;;;;4.43;40.74;100278.20;1722720;81;21068;-54
2022/04/04 08:10:48;;;;;;;6.65;3.05;;;;;;;4.45;40.03;100278.95;1725443;82;21508;-54
2022/04/04 08:13:15;;;;;;;7.12;3.20;;;;;;;4.49;40.10;100288.30;1726992;81;21181;-55
2022/04/04 08:15:45;;;;;;;7.15;2.83;;;;;;;4.50;38.66;100280.00;1731382;81;21046;-54
2022/04/04 08:18:13;;;;;;;8.83;3.52;;;;;;;4.53;38.82;100289.78;1732957;81;21105;-54
2022/04/04 08:20:40;;;;;;;7.08;3.12;;;;;;;4.57;38.69;100286.09;1723828;81;21049;-55
2022/04/04 08:23:08;;;;;;;8.40;3.27;;;;;;;4.61;39.01;100284.98;1729814;81;21079;-55
2022/04/04 08:25:35;;;;;;;5.70;2.52;;;;;;;4.65;38.46;100281.73;1730346;81;21158;-54
2022/04/04 08:28:03;;;;;;;5.42;2.55;;;;;;;4.75;37.71;100278.97;1728861;82;21889;-54
2022/04/04 08:30:30;;;;;;;6.75;3.10;;;;;;;4.88;37.29;100267.86;1723643;81;21511;-54
2022/04/04 08:32:57;;;;;;;6.95;2.80;;;;;;;4.96;36.13;100280.81;1721335;81;21042;-54
2022/04/04 08:35:24;;;;;;;10.40;3.05;;;;;;;5.00;36.07;100283.61;1728548;81;21087;-54
2022/04/04 08:37:53;;;;;;;7.87;3.15;;;;;;;5.05;36.98;100286.43;1718114;82;21038;-54
2022/04/04 08:40:26;;;;;;;5.78;2.70;;;;;;;5.11;37.71;100284.30;1697879;82;21536;-53
2022/04/04 08:42:53;;;;;;;5.60;2.42;;;;;;;5.17;36.56;100287.00;1705640;82;21043;-53
2022/04/04 08:45:20;;;;;;;5.25;2.20;;;;;;;5.24;35.99;100281.78;1709926;82;21114;-54
2022/04/04 08:47:46;;;;;;;8.03;2.87;;;;;;;5.29;34.14;100301.09;1711273;82;21063;-53
2022/04/04 08:50:14;;;;;;;5.03;2.27;;;;;;;5.34;31.33;100286.00;1710299;82;21791;-53
2022/04/04 08:52:43;;;;;;;5.37;2.20;;;;;;;5.40;30.76;100283.03;1711336;82;21043;-53
2022/04/04 08:55:12;;;;;;;4.95;2.37;;;;;;;5.45;30.81;100262.72;1686382;83;21056;-55
2022/04/04 08:57:39;;;;;;;4.35;2.00;;;;;;;5.46;31.78;100278.73;1713985;83;21602;-53
2022/04/04 09:00:10;;;;;;;5.58;2.25;;;;;;;5.49;31.61;100285.55;1710189;82;21128;-53
2022/04/04 09:02:37;;;;;;;5.33;1.77;;;;;;;5.48;32.75;100270.80;1710435;83;22206;-53
2022/04/04 09:05:06;;;;;;;5.75;2.42;;;;;;;5.53;32.38;100270.92;1714503;82;21078;-53
2022/04/04 09:07:34;;;;;;;5.45;2.42;;;;;;;5.58;32.51;100270.62;1697402;82;21047;-53
2022/04/04 09:10:00;;;;;;;5.87;2.45;;;;;;;5.59;32.84;100262.70;1701845;82;21131;-53
2022/04/04 09:12:27;;;;;;;5.42;2.27;;;;;;;5.68;33.09;100267.84;1713335;82;21097;-53
2022/04/04 09:14:56;;;;;;;6.47;2.45;;;;;;;5.79;32.52;100254.59;1710025;82;21070;-53
2022/04/04 09:17:30;;;;;;;6.37;2.87;;;;;;;5.85;32.19;100268.11;1718137;83;21580;-55
2022/04/04 09:19:57;;;;;;;5.15;2.35;;;;;;;5.88;33.58;100263.14;1713716;82;21058;-53
2022/04/04 09:22:24;;;;;;;5.08;2.25;;;;;;;5.90;33.12;100261.27;1715279;82;21047;-53
2022/04/04 09:24:56;;;;;;;6.20;3.02;;;;;;;5.89;32.51;100264.36;1709725;82;21073;-53
2022/04/04 09:27:32;;;;;;;5.42;2.37;;;;;;;5.88;32.88;100263.14;1713392;82;21880;-53
2022/04/04 09:30:07;;;;;;;5.75;2.50;;;;;;;5.83;31.30;100243.00;1708234;82;21053;-53
2022/04/04 09:32:46;;;;;;;5.30;2.50;;;;;;;5.83;32.41;100254.76;1710141;82;21766;-53
2022/04/04 09:35:18;;;;;;;4.87;1.87;;;;;;;5.86;33.24;100253.27;1713627;82;21042;-53
2022/04/04 09:37:53;;;;;;;4.08;1.90;;;;;;;5.91;33.42;100264.26;1713343;82;21524;-53
2022/04/04 09:40:27;;;;;;;8.55;2.60;;;;;;;6.01;32.55;100255.42;1737382;80;21186;-53
2022/04/04 09:42:58;;;;;;;7.80;2.90;;;;;;;5.99;32.18;100262.05;1738304;80;21104;-53
2022/04/04 09:45:28;;;;;;;6.05;2.25;;;;;;;5.95;32.30;100248.76;1743708;80;21031;-53
2022/04/04 09:48:04;;;;;;;5.22;2.50;;;;;;;5.98;32.78;100251.22;1742218;80;21060;-53
2022/04/04 09:50:49;;;;;;;4.95;2.27;;;;;;;6.07;32.81;100257.17;1739761;80;21545;-53
2022/04/04 09:53:25;;;;;;;9.98;2.75;;;;;;;6.12;32.55;100260.34;1745991;80;21021;-53
2022/04/04 09:55:56;;;;;;;4.80;2.43;;;;;;;6.13;32.82;100261.99;1738220;80;21020;-53
2022/04/04 09:58:29;;;;;;;5.60;2.25;;;;;;;6.16;32.95;100248.39;1742059;80;21324;-52
2022/04/04 10:00:58;;;;;;;5.45;1.98;;;;;;;6.19;32.36;100236.44;1737033;80;21045;-53
2022/04/04 10:03:25;;;;;;;4.55;1.85;;;;;;;6.16;33.15;100265.38;1741341;80;21035;-53
2022/04/04 10:06:04;;;;;;;5.72;2.40;;;;;;;6.10;32.72;100270.05;1745462;80;22356;-53
2022/04/04 10:08:30;;;;;;;4.65;1.98;;;;;;;6.04;32.38;100259.98;1745835;80;21035;-54
2022/04/04 10:10:57;;;;;;;7.75;2.10;;;;;;;6.01;32.17;100269.30;1745492;80;21084;-54
2022/04/04 10:13:25;;;;;;;7.72;2.27;;;;;;;6.05;32.70;100266.03;1748318;80;21090;-55
2022/04/04 10:15:53;;;;;;;9.80;2.08;;;;;;;6.19;32.17;100252.12;1737150;80;21122;-55
2022/04/04 10:18:21;;;;;;;5.37;1.82;;;;;;;6.31;32.79;100260.47;1737012;80;21200;-55
2022/04/04 10:20:53;;;;;;;4.15;1.60;;;;;;;6.44;31.61;100253.96;1732106;80;21063;-52
2022/04/04 10:23:21;;;;;;;3.65;1.62;;;;;;;6.59;31.84;100258.22;1742613;80;21059;-52
2022/04/04 10:25:51;;;;;;;5.70;2.30;;;;;;;6.74;31.37;100252.45;1737463;80;21071;-54
2022/04/04 10:28:32;;;;;;;4.28;1.45;;;;;;;6.80;30.57;100250.72;1731669;80;21620;-55
2022/04/04 10:31:00;;;;;;;5.33;1.62;;;;;;;6.91;31.86;100250.02;1727434;80;21634;-54
2022/04/04 10:33:27;;;;;;;4.90;1.77;;;;;;;6.99;32.42;100255.58;1734433;80;21537;-54
2022/04/04 10:36:10;;;;;;;6.90;1.92;;;;;;;7.14;32.38;100260.70;1738088;80;21297;-54
2022/04/04 10:38:49;;;;;;;6.20;1.50;;;;;;;7.25;30.72;100243.81;1734958;80;21087;-53
2022/04/04 10:41:21;;;;;;;3.70;1.55;;;;;;;7.39;31.60;100259.88;1728254;81;21046;-53
2022/04/04 10:43:50;;;;;;;4.10;1.87;;;;;;;7.51;30.63;100242.48;1734726;81;21304;-53
2022/04/04 10:46:20;;;;;;;4.90;1.72;;;;;;;7.45;29.97;100239.83;1717771;81;21038;-53
2022/04/04 10:48:53;;;;;;;4.25;2.00;;;;;;;7.38;30.74;100252.95;1718944;81;21047;-52
2022/04/04 10:51:26;;;;;;;4.53;1.37;;;;;;;7.25;31.33;100247.73;1727559;81;21070;-53
2022/04/04 10:54:01;;;;;;;4.85;1.50;;;;;;;7.16;30.76;100246.59;1727836;81;21048;-53
2022/04/04 10:56:31;;;;;;;5.12;2.05;;;;;;;7.08;31.18;100255.42;1727981;81;22035;-52
2022/04/04 10:59:22;;;;;;;8.10;2.15;;;;;;;6.98;31.33;100272.20;1705804;81;21050;-53
2022/04/04 11:01:56;;;;;;;5.45;1.70;;;;;;;6.82;31.92;100250.14;1729381;82;21010;-53
2022/04/04 11:04:29;;;;;;;4.05;1.87;;;;;;;6.70;32.38;100253.58;1729033;82;21086;-53
2022/04/04 11:10:06;;;;;;;6.65;1.90;;;;;;;6.79;32.95;100252.12;1723180;81;22292;-53
2022/04/04 11:12:56;;;;;;;5.75;1.72;;;;;;;6.88;32.87;100244.98;1734950;82;21539;-53
2022/04/04 11:15:43;;;;;;;6.35;1.47;;;;;;;6.91;31.71;100246.55;1726969;81;21047;-53
2022/04/04 11:18:13;;;;;;;5.08;1.72;;;;;;;6.93;32.07;100255.98;1730557;81;21184;-54
2022/04/04 11:20:50;;;;;;;5.08;1.85;;;;;;;6.98;32.58;100261.74;1725663;81;21022;-54
2022/04/04 11:23:18;;;;;;;3.72;1.45;;;;;;;7.05;33.02;100243.38;1727024;81;21140;-53
2022/04/04 11:25:55;;;;;;;6.80;1.98;;;;;;;7.13;32.91;100251.17;1727132;81;21576;-54
2022/04/04 11:28:25;;;;;;;9.75;2.10;;;;;;;7.07;33.22;100251.13;1725219;81;21058;-54
2022/04/04 11:30:54;;;;;;;4.70;1.65;;;;;;;6.99;33.31;100248.18;1723985;81;21049;-54
2022/04/04 11:33:26;;;;;;;4.40;1.80;;;;;;;6.98;33.07;100249.97;1730232;81;21643;-54
2022/04/04 11:35:52;;;;;;;4.70;1.60;;;;;;;6.97;33.88;100266.59;1719360;81;22136;-53
2022/04/04 11:38:20;;;;;;;4.97;1.98;;;;;;;6.88;32.71;100252.36;1724938;82;21053;-53
2022/04/04 11:40:55;;;;;;;5.55;1.85;;;;;;;6.85;33.37;100256.48;1725371;81;21129;-53
2022/04/04 11:43:23;;;;;;;3.70;1.37;;;;;;;6.92;33.04;100264.75;1726776;82;21662;-53
2022/04/04 11:45:52;;;;;;;4.22;1.65;;;;;;;6.92;32.19;100253.47;1729372;81;21086;-53
2022/04/04 11:48:27;;;;;;;4.85;1.60;;;;;;;6.95;33.03;100254.58;1728379;82;21154;-53
2022/04/04 11:50:58;;;;;;;3.77;1.32;;;;;;;7.04;32.10;100240.41;1728841;81;21455;-52